createdAt,value
2023-03-18T00:01:12.635Z,5.62
2023-03-18T00:03:40.830Z,5.63
2023-03-18T00:06:14.501Z,5.60
2023-03-18T00:08:43.573Z,5.57
2023-03-18T00:11:13.150Z,5.60
2023-03-18T00:13:42.702Z,5.60
2023-03-18T00:16:12.617Z,5.59
2023-03-18T00:18:41.905Z,5.58
2023-03-18T00:21:10.179Z,5.58
2023-03-18T00:23:38.958Z,5.55
2023-03-18T00:26:09.107Z,5.54
2023-03-18T00:28:38.354Z,5.52
2023-03-18T00:31:09.634Z,5.49
2023-03-18T00:33:40.312Z,5.46
2023-03-18T00:36:10.471Z,5.42
2023-03-18T00:38:38.671Z,5.42
2023-03-18T00:41:16.273Z,5.43
2023-03-18T00:43:47.225Z,5.41
2023-03-18T00:46:18.026Z,5.38
2023-03-18T00:48:47.623Z,5.39
2023-03-18T00:51:17.569Z,5.39
2023-03-18T00:53:48.782Z,5.36
2023-03-18T00:56:19.189Z,5.31
2023-03-18T00:58:48.372Z,5.31
2023-03-18T01:01:17.917Z,5.30
2023-03-18T01:03:47.782Z,5.26
2023-03-18T01:06:20.343Z,5.21
2023-03-18T01:08:49.647Z,5.19
2023-03-18T01:11:18.910Z,5.23
2023-03-18T01:13:49.774Z,5.20
2023-03-18T01:16:18.258Z,5.19
2023-03-18T01:18:46.862Z,5.11
2023-03-18T01:21:15.676Z,5.13
2023-03-18T01:23:50.018Z,5.14
2023-03-18T01:26:18.616Z,5.13
2023-03-18T01:28:48.178Z,5.14
2023-03-18T01:31:16.533Z,5.12
2023-03-18T01:33:46.376Z,5.12
2023-03-18T01:36:15.704Z,5.07
2023-03-18T01:38:44.974Z,5.06
2023-03-18T01:41:16.971Z,5.03
2023-03-18T01:43:45.104Z,5.01
2023-03-18T01:46:31.534Z,4.98
2023-03-18T01:49:02.850Z,4.95
2023-03-18T01:51:31.342Z,4.92
2023-03-18T01:54:03.961Z,4.89
2023-03-18T01:56:34.432Z,4.87
2023-03-18T01:59:03.707Z,4.88
2023-03-18T02:01:42.351Z,4.84
2023-03-18T02:04:11.388Z,4.83
2023-03-18T02:06:42.487Z,4.79
2023-03-18T02:09:12.442Z,4.68
2023-03-18T02:11:43.862Z,4.72
2023-03-18T02:14:15.058Z,4.70
2023-03-18T02:16:50.473Z,4.71
2023-03-18T02:19:50.254Z,4.70
2023-03-18T02:22:31.324Z,4.57
2023-03-18T02:25:19.675Z,4.55
2023-03-18T02:27:55.934Z,4.56
2023-03-18T02:30:28.573Z,4.56
2023-03-18T02:32:59.571Z,4.56
2023-03-18T02:35:30.041Z,4.54
2023-03-18T02:37:59.185Z,4.55
2023-03-18T02:40:31.493Z,4.57
2023-03-18T02:43:17.090Z,4.55
2023-03-18T02:45:58.206Z,4.53
2023-03-18T02:48:33.556Z,4.51
2023-03-18T02:51:02.549Z,4.48
2023-03-18T02:53:30.683Z,4.51
2023-03-18T02:55:58.882Z,4.43
2023-03-18T02:58:27.461Z,4.46
2023-03-18T03:00:57.888Z,4.41
2023-03-18T03:03:27.818Z,4.40
2023-03-18T03:05:56.525Z,4.39
2023-03-18T03:08:25.287Z,4.41
2023-03-18T03:10:53.763Z,4.37
2023-03-18T03:13:23.337Z,4.38
2023-03-18T03:15:52.645Z,4.36
2023-03-18T03:18:21.037Z,4.34
2023-03-18T03:20:51.272Z,4.32
2023-03-18T03:23:21.630Z,4.32
2023-03-18T03:25:49.759Z,4.32
2023-03-18T03:28:17.850Z,4.28
2023-03-18T03:30:46.269Z,4.29
2023-03-18T03:33:14.888Z,4.27
2023-03-18T03:35:43.104Z,4.26
2023-03-18T03:38:11.856Z,4.26
2023-03-18T03:40:41.160Z,4.22
2023-03-18T03:43:13.619Z,4.24
2023-03-18T03:45:43.940Z,4.23
2023-03-18T03:48:13.058Z,4.19
2023-03-18T03:50:41.506Z,4.18
2023-03-18T03:53:10.716Z,4.16
2023-03-18T03:55:39.197Z,4.15
2023-03-18T03:58:07.817Z,4.15
2023-03-18T04:00:36.719Z,4.15
2023-03-18T04:03:04.909Z,4.13
2023-03-18T04:05:33.009Z,4.13
2023-03-18T04:08:01.390Z,4.12
2023-03-18T04:10:40.210Z,4.10
2023-03-18T04:13:10.810Z,4.09
2023-03-18T04:15:40.655Z,4.08
2023-03-18T04:18:11.999Z,4.06
2023-03-18T04:20:40.169Z,4.08
2023-03-18T04:23:15.830Z,4.05
2023-03-18T04:25:44.743Z,4.04
2023-03-18T04:28:14.329Z,4.03
2023-03-18T04:30:42.699Z,4.01
2023-03-18T04:33:14.904Z,3.96
2023-03-18T04:35:43.807Z,3.94
2023-03-18T04:38:12.942Z,3.94
2023-03-18T04:40:42.982Z,3.92
2023-03-18T04:43:11.444Z,3.88
2023-03-18T04:45:40.230Z,3.90
2023-03-18T04:48:08.502Z,3.95
2023-03-18T04:50:40.055Z,3.88
2023-03-18T04:53:10.167Z,3.86
2023-03-18T04:55:40.262Z,3.93
2023-03-18T04:58:09.903Z,3.91
2023-03-18T05:00:41.055Z,3.88
2023-03-18T05:03:32.292Z,3.84
2023-03-18T05:06:01.044Z,3.84
2023-03-18T05:08:37.620Z,3.85
2023-03-18T05:11:05.688Z,3.84
2023-03-18T05:13:34.165Z,3.84
2023-03-18T05:16:02.764Z,3.86
2023-03-18T05:18:30.922Z,3.93
2023-03-18T05:21:01.041Z,3.94
2023-03-18T05:23:29.689Z,3.97
2023-03-18T05:25:58.083Z,4.05
2023-03-18T05:28:27.865Z,4.03
2023-03-18T05:31:08.679Z,4.05
2023-03-18T05:33:39.104Z,4.07
2023-03-18T05:36:07.957Z,4.07
2023-03-18T05:38:39.660Z,4.09
2023-03-18T05:41:08.845Z,4.12
2023-03-18T05:43:41.043Z,4.10
2023-03-18T05:46:09.135Z,4.16
2023-03-18T05:49:10.394Z,4.13
2023-03-18T05:51:57.250Z,4.11
2023-03-18T05:54:35.265Z,4.12
2023-03-18T05:57:03.531Z,4.16
2023-03-18T05:59:32.213Z,4.25
2023-03-18T06:02:02.790Z,4.31
2023-03-18T06:04:31.320Z,4.35
2023-03-18T06:06:59.490Z,4.44
2023-03-18T06:09:27.562Z,4.48
2023-03-18T06:11:55.742Z,4.57
2023-03-18T06:14:29.357Z,4.62
2023-03-18T06:16:59.661Z,4.67
2023-03-18T06:19:28.752Z,4.75
2023-03-18T06:21:58.948Z,4.82
2023-03-18T06:24:27.352Z,4.92
2023-03-18T06:26:56.039Z,4.90
2023-03-18T06:29:24.106Z,4.93
2023-03-18T06:31:53.614Z,5.00
2023-03-18T06:34:24.192Z,5.07
2023-03-18T06:36:52.511Z,5.14
2023-03-18T06:39:21.255Z,5.19
2023-03-18T06:41:49.982Z,5.23
2023-03-18T06:44:37.003Z,5.21
2023-03-18T06:47:12.223Z,5.27
2023-03-18T06:49:44.315Z,5.26
2023-03-18T06:52:18.360Z,5.28
2023-03-18T06:54:46.685Z,5.29
2023-03-18T06:57:15.481Z,5.32
2023-03-18T06:59:43.453Z,5.35
2023-03-18T07:02:12.546Z,5.37
2023-03-18T07:04:40.621Z,5.40
2023-03-18T07:07:08.891Z,5.43
2023-03-18T07:09:37.683Z,5.49
2023-03-18T07:12:07.795Z,5.55
2023-03-18T07:14:35.859Z,5.60
2023-03-18T07:17:04.014Z,5.66
2023-03-18T07:19:33.437Z,5.76
2023-03-18T07:22:02.644Z,5.83
2023-03-18T07:24:30.703Z,5.92
2023-03-18T07:26:59.106Z,6.02
2023-03-18T07:29:27.150Z,6.11
2023-03-18T07:31:55.193Z,6.21
2023-03-18T07:34:23.599Z,6.33
2023-03-18T07:36:52.283Z,6.47
2023-03-18T07:39:21.080Z,6.58
2023-03-18T07:41:49.671Z,6.74
2023-03-18T07:44:22.432Z,6.93
2023-03-18T07:46:50.577Z,7.04
2023-03-18T07:49:18.681Z,7.21
2023-03-18T07:51:46.749Z,7.35
2023-03-18T07:54:14.827Z,7.43
2023-03-18T07:56:42.937Z,7.54
2023-03-18T07:59:11.165Z,7.60
2023-03-18T08:01:40.064Z,7.65
2023-03-18T08:04:08.425Z,7.69
2023-03-18T08:06:37.745Z,7.72
2023-03-18T08:09:06.927Z,7.75
2023-03-18T08:11:35.474Z,7.74
2023-03-18T08:14:03.476Z,7.69
2023-03-18T08:16:31.610Z,7.66
2023-03-18T08:18:59.824Z,7.63
2023-03-18T08:21:28.097Z,7.62
2023-03-18T08:23:57.001Z,7.58
2023-03-18T08:26:25.122Z,7.58
2023-03-18T08:28:53.436Z,7.61
2023-03-18T08:31:21.673Z,7.66
2023-03-18T08:33:49.891Z,7.71
2023-03-18T08:36:18.980Z,7.73
2023-03-18T08:38:47.304Z,7.81
2023-03-18T08:41:17.225Z,7.89
2023-03-18T08:43:45.338Z,7.91
2023-03-18T08:46:14.004Z,7.96
2023-03-18T08:48:42.304Z,7.95
2023-03-18T08:51:13.485Z,7.97
2023-03-18T08:53:41.538Z,7.95
2023-03-18T08:56:10.114Z,7.92
2023-03-18T08:58:38.372Z,7.97
2023-03-18T09:01:06.471Z,8.01
2023-03-18T09:03:35.760Z,8.11
2023-03-18T09:06:04.856Z,8.22
2023-03-18T09:08:33.693Z,8.28
2023-03-18T09:11:01.721Z,8.33
2023-03-18T09:13:29.764Z,8.34
2023-03-18T09:15:58.223Z,8.35
2023-03-18T09:18:26.420Z,8.43
2023-03-18T09:20:54.491Z,8.49
2023-03-18T09:23:22.660Z,8.56
2023-03-18T09:25:50.780Z,8.64
2023-03-18T09:28:19.037Z,8.72
2023-03-18T09:30:47.754Z,8.78
2023-03-18T09:33:16.366Z,8.85
2023-03-18T09:35:45.076Z,8.90
2023-03-18T09:38:17.832Z,8.96
2023-03-18T09:41:24.827Z,9.03
2023-03-18T09:44:08.707Z,9.07
2023-03-18T09:46:39.758Z,9.18
2023-03-18T09:49:20.161Z,9.22
2023-03-18T09:52:04.612Z,9.22
2023-03-18T09:54:49.504Z,9.20
2023-03-18T09:57:32.198Z,9.24
2023-03-18T10:00:21.136Z,9.26
2023-03-18T10:03:15.451Z,9.30
2023-03-18T10:05:57.037Z,9.27
2023-03-18T10:08:40.359Z,9.29
2023-03-18T10:11:17.496Z,9.29
2023-03-18T10:13:54.470Z,9.30
2023-03-18T10:16:28.401Z,9.36
2023-03-18T10:18:57.380Z,9.46
2023-03-18T10:21:50.272Z,9.50
2023-03-18T10:25:03.808Z,9.52
2023-03-18T10:27:40.985Z,9.60
2023-03-18T10:30:27.797Z,9.70
2023-03-18T10:32:58.493Z,9.75
2023-03-18T10:35:34.870Z,9.83
2023-03-18T10:38:19.354Z,9.93
2023-03-18T10:40:48.493Z,9.99
2023-03-18T10:43:23.282Z,10.01
2023-03-18T10:46:00.883Z,9.97
2023-03-18T10:48:44.350Z,9.94
2023-03-18T10:51:18.737Z,9.94
2023-03-18T10:53:53.110Z,9.99
2023-03-18T10:56:22.443Z,10.02
2023-03-18T10:58:52.845Z,10.04
2023-03-18T11:01:25.317Z,10.10
2023-03-18T11:04:06.812Z,10.18
2023-03-18T11:06:45.333Z,10.27
2023-03-18T11:09:18.188Z,10.36
2023-03-18T11:11:51.236Z,10.40
2023-03-18T11:14:23.103Z,10.45
2023-03-18T11:17:31.426Z,10.47
2023-03-18T11:20:08.407Z,10.41
2023-03-18T11:22:37.868Z,10.39
2023-03-18T11:25:17.387Z,10.39
2023-03-18T11:27:47.317Z,10.38
2023-03-18T11:30:41.390Z,10.37
2023-03-18T11:33:12.753Z,10.35
2023-03-18T11:35:57.701Z,10.39
2023-03-18T11:38:30.123Z,10.40
2023-03-18T11:41:23.034Z,10.45
2023-03-18T11:44:01.954Z,10.45
2023-03-18T11:46:45.957Z,10.48
2023-03-18T11:49:27.399Z,10.54
2023-03-18T11:52:14.109Z,10.57
2023-03-18T11:54:45.375Z,10.61
2023-03-18T11:57:27.404Z,10.64
2023-03-18T12:00:13.740Z,10.65
2023-03-18T12:02:56.654Z,10.62
2023-03-18T12:05:55.396Z,10.63
2023-03-18T12:08:51.571Z,10.58
2023-03-18T12:11:35.318Z,10.63
2023-03-18T12:14:18.742Z,10.68
2023-03-18T12:17:13.441Z,10.73
2023-03-18T12:20:04.452Z,10.76
2023-03-18T12:23:01.900Z,10.80
2023-03-18T12:25:54.858Z,10.80
2023-03-18T12:28:52.721Z,10.81
2023-03-18T12:31:42.801Z,10.84
2023-03-18T12:34:47.952Z,10.92
2023-03-18T12:37:32.534Z,11.01
2023-03-18T12:40:12.730Z,11.10
2023-03-18T12:42:55.989Z,11.22
2023-03-18T12:45:32.683Z,11.26
2023-03-18T12:48:04.828Z,11.29
2023-03-18T12:50:47.815Z,11.32
2023-03-18T12:53:27.693Z,11.32
2023-03-18T12:56:01.872Z,11.35
2023-03-18T12:58:39.862Z,11.34
2023-03-18T13:01:19.220Z,11.29
2023-03-18T13:03:55.625Z,11.23
2023-03-18T13:06:31.887Z,11.21
2023-03-18T13:09:12.230Z,11.20
2023-03-18T13:11:43.164Z,11.20
2023-03-18T13:14:38.937Z,11.18
2023-03-18T13:17:14.942Z,11.17
2023-03-18T13:19:44.430Z,11.17
2023-03-18T13:22:47.631Z,11.16
2023-03-18T13:25:29.127Z,11.15
2023-03-18T13:28:06.024Z,11.20
2023-03-18T13:31:01.630Z,11.23
2023-03-18T13:33:49.039Z,11.23
2023-03-18T13:36:44.994Z,11.26
2023-03-18T13:39:15.630Z,11.28
2023-03-18T13:41:55.539Z,11.34
2023-03-18T13:44:43.551Z,11.35
2023-03-18T13:47:18.837Z,11.33
2023-03-18T13:49:47.909Z,11.35
2023-03-18T13:52:44.094Z,11.36
2023-03-18T13:55:27.860Z,11.37
2023-03-18T13:57:56.165Z,11.36
2023-03-18T14:00:33.442Z,11.39
2023-03-18T14:03:25.158Z,11.41
2023-03-18T14:06:16.685Z,11.42
2023-03-18T14:08:50.387Z,11.44
2023-03-18T14:11:23.063Z,11.47
2023-03-18T14:14:00.742Z,11.46
2023-03-18T14:16:34.578Z,11.47
2023-03-18T14:19:12.399Z,11.50
2023-03-18T14:22:05.228Z,11.53
2023-03-18T14:24:33.996Z,11.49
2023-03-18T14:27:04.542Z,11.50
2023-03-18T14:29:42.178Z,11.53
2023-03-18T14:32:33.425Z,11.52
2023-03-18T14:35:28.726Z,11.49
2023-03-18T14:38:18.338Z,11.46
2023-03-18T14:40:51.865Z,11.45
2023-03-18T14:43:19.902Z,11.47
2023-03-18T14:45:52.346Z,11.50
2023-03-18T14:48:25.026Z,11.55
2023-03-18T14:50:54.967Z,11.57
2023-03-18T14:53:31.123Z,11.60
2023-03-18T14:55:59.644Z,11.60
2023-03-18T14:58:28.541Z,11.62
2023-03-18T15:01:11.045Z,11.65
2023-03-18T15:03:43.498Z,11.66
2023-03-18T15:06:19.796Z,11.69
2023-03-18T15:08:56.932Z,11.67
2023-03-18T15:11:25.825Z,11.65
2023-03-18T15:13:57.800Z,11.61
2023-03-18T15:16:30.862Z,11.57
2023-03-18T15:18:59.766Z,11.54
2023-03-18T15:21:32.566Z,11.50
2023-03-18T15:24:04.703Z,11.44
2023-03-18T15:26:41.537Z,11.42
2023-03-18T15:29:26.747Z,11.38
2023-03-18T15:32:10.121Z,11.32
2023-03-18T15:34:42.369Z,11.27
2023-03-18T15:37:36.433Z,11.25
2023-03-18T15:40:32.396Z,11.21
2023-03-18T15:43:25.672Z,11.17
2023-03-18T15:45:57.835Z,11.10
2023-03-18T15:48:42.274Z,11.09
2023-03-18T15:51:27.072Z,11.05
2023-03-18T15:53:59.226Z,11.00
2023-03-18T15:56:30.336Z,10.98
2023-03-18T15:58:59.778Z,10.97
2023-03-18T16:01:27.930Z,10.94
2023-03-18T16:03:56.067Z,10.93
2023-03-18T16:06:24.610Z,10.90
2023-03-18T16:08:53.602Z,10.88
2023-03-18T16:11:24.174Z,10.85
2023-03-18T16:13:52.989Z,10.85
2023-03-18T16:16:27.848Z,10.82
2023-03-18T16:18:58.100Z,10.79
2023-03-18T16:21:27.324Z,10.76
2023-03-18T16:23:56.116Z,10.77
2023-03-18T16:26:24.143Z,10.75
2023-03-18T16:28:52.214Z,10.73
2023-03-18T16:31:20.322Z,10.72
2023-03-18T16:33:52.856Z,10.71
2023-03-18T16:36:29.815Z,10.68
2023-03-18T16:38:57.907Z,10.63
2023-03-18T16:41:26.184Z,10.60
2023-03-18T16:43:54.514Z,10.56
2023-03-18T16:46:24.241Z,10.52
2023-03-18T16:48:52.341Z,10.48
2023-03-18T16:51:20.413Z,10.42
2023-03-18T16:53:48.689Z,10.39
2023-03-18T16:56:19.167Z,10.35
2023-03-18T16:58:47.446Z,10.30
2023-03-18T17:01:17.137Z,10.25
2023-03-18T17:03:45.753Z,10.22
2023-03-18T17:06:14.986Z,10.19
2023-03-18T17:08:43.171Z,10.17
2023-03-18T17:11:18.484Z,10.15
2023-03-18T17:13:47.512Z,10.13
2023-03-18T17:16:20.279Z,10.12
2023-03-18T17:18:48.374Z,10.10
2023-03-18T17:21:17.231Z,10.08
2023-03-18T17:23:45.931Z,10.07
2023-03-18T17:26:17.668Z,10.05
2023-03-18T17:28:49.388Z,10.03
2023-03-18T17:31:17.578Z,9.98
2023-03-18T17:33:46.012Z,9.94
2023-03-18T17:36:14.065Z,9.92
2023-03-18T17:38:42.153Z,9.92
2023-03-18T17:41:18.415Z,9.90
2023-03-18T17:43:47.494Z,9.87
2023-03-18T17:46:15.640Z,9.86
2023-03-18T17:48:43.983Z,9.84
2023-03-18T17:51:17.168Z,9.84
2023-03-18T17:53:51.590Z,9.81
2023-03-18T17:56:20.526Z,9.81
2023-03-18T17:58:51.558Z,9.78
2023-03-18T18:01:29.298Z,9.78
2023-03-18T18:03:58.962Z,9.76
2023-03-18T18:06:29.534Z,9.75
2023-03-18T18:09:00.596Z,9.73
2023-03-18T18:11:35.511Z,9.73
2023-03-18T18:14:29.136Z,9.70
2023-03-18T18:16:57.171Z,9.65
2023-03-18T18:19:25.473Z,9.65
2023-03-18T18:21:54.292Z,9.66
2023-03-18T18:24:30.887Z,9.70
2023-03-18T18:26:59.503Z,9.68
2023-03-18T18:29:29.760Z,9.69
2023-03-18T18:31:58.026Z,9.63
2023-03-18T18:34:26.091Z,9.64
2023-03-18T18:36:54.264Z,9.66
2023-03-18T18:39:22.355Z,9.67
2023-03-18T18:41:51.402Z,9.65
2023-03-18T18:44:19.800Z,9.68
2023-03-18T18:46:48.007Z,9.69
2023-03-18T18:49:22.805Z,9.71
2023-03-18T18:51:55.819Z,9.72
2023-03-18T18:54:24.720Z,9.72
2023-03-18T18:56:52.974Z,9.74
2023-03-18T18:59:26.197Z,9.76
2023-03-18T19:01:55.607Z,9.78
2023-03-18T19:04:24.646Z,9.78
2023-03-18T19:06:54.022Z,9.77
2023-03-18T19:09:24.617Z,9.77
2023-03-18T19:11:53.738Z,9.76
2023-03-18T19:14:29.467Z,9.76
2023-03-18T19:16:59.160Z,9.73
2023-03-18T19:19:30.080Z,9.74
2023-03-18T19:21:59.160Z,9.72
2023-03-18T19:24:32.726Z,9.71
2023-03-18T19:27:04.322Z,9.68
2023-03-18T19:29:33.365Z,9.65
2023-03-18T19:32:01.983Z,9.64
2023-03-18T19:34:32.533Z,9.61
2023-03-18T19:37:02.981Z,9.60
2023-03-18T19:39:31.954Z,9.60
2023-03-18T19:42:00.038Z,9.57
2023-03-18T19:44:28.102Z,9.56
2023-03-18T19:46:59.352Z,9.57
2023-03-18T19:49:35.242Z,9.54
2023-03-18T19:52:17.194Z,9.52
2023-03-18T19:54:47.013Z,9.47
2023-03-18T19:57:19.025Z,9.45
2023-03-18T19:59:49.096Z,9.41
2023-03-18T20:02:20.198Z,9.41
2023-03-18T20:04:53.768Z,9.40
2023-03-18T20:07:24.944Z,9.38
2023-03-18T20:09:54.148Z,9.36
2023-03-18T20:12:26.610Z,9.36
2023-03-18T20:14:54.762Z,9.34
2023-03-18T20:17:36.580Z,9.34
2023-03-18T20:20:07.646Z,9.31
2023-03-18T20:22:38.256Z,9.32
2023-03-18T20:25:09.365Z,9.30
2023-03-18T20:27:37.357Z,9.31
2023-03-18T20:30:28.074Z,9.30
2023-03-18T20:32:57.636Z,9.25
2023-03-18T20:35:30.589Z,9.25
2023-03-18T20:38:01.595Z,9.24
2023-03-18T20:40:31.480Z,9.21
2023-03-18T20:42:59.590Z,9.19
2023-03-18T20:45:27.750Z,9.18
2023-03-18T20:47:56.947Z,9.16
2023-03-18T20:50:31.471Z,9.14
2023-03-18T20:52:59.641Z,9.13
2023-03-18T20:55:33.481Z,9.11
2023-03-18T20:58:02.597Z,9.11
2023-03-18T21:00:33.386Z,9.11
2023-03-18T21:03:03.217Z,9.11
2023-03-18T21:05:31.596Z,9.11
2023-03-18T21:07:59.947Z,9.11
2023-03-18T21:10:28.135Z,9.11
2023-03-18T21:12:56.290Z,9.13
2023-03-18T21:15:28.185Z,9.11
2023-03-18T21:17:56.220Z,9.10
2023-03-18T21:20:29.521Z,9.07
2023-03-18T21:22:57.580Z,9.03
2023-03-18T21:25:27.495Z,9.04
2023-03-18T21:27:56.079Z,9.04
2023-03-18T21:30:24.859Z,9.05
2023-03-18T21:32:52.989Z,9.08
2023-03-18T21:35:24.005Z,9.12
2023-03-18T21:37:52.862Z,9.18
2023-03-18T21:40:23.622Z,9.21
2023-03-18T21:42:52.430Z,9.23
2023-03-18T21:45:23.861Z,9.26
2023-03-18T21:47:52.926Z,9.27
2023-03-18T21:50:26.403Z,9.27
2023-03-18T21:52:54.784Z,9.29
2023-03-18T21:55:23.188Z,9.29
2023-03-18T21:57:51.590Z,9.30
2023-03-18T22:00:20.560Z,9.30
2023-03-18T22:02:49.251Z,9.31
2023-03-18T22:05:20.722Z,9.30
2023-03-18T22:07:50.928Z,9.29
2023-03-18T22:10:21.746Z,9.30
2023-03-18T22:12:50.634Z,9.31
2023-03-18T22:15:24.957Z,9.33
2023-03-18T22:17:52.920Z,9.34
2023-03-18T22:20:21.192Z,9.34
2023-03-18T22:22:49.473Z,9.33
2023-03-18T22:25:28.391Z,9.32
2023-03-18T22:27:58.263Z,9.31
2023-03-18T22:30:28.281Z,9.29
2023-03-18T22:32:57.862Z,9.27
2023-03-18T22:35:28.505Z,9.28
2023-03-18T22:37:57.020Z,9.26
2023-03-18T22:40:28.058Z,9.22
2023-03-18T22:42:58.809Z,9.21
2023-03-18T22:45:29.847Z,9.20
2023-03-18T22:48:01.364Z,9.19
2023-03-18T22:50:34.855Z,9.19
2023-03-18T22:53:06.670Z,9.21
2023-03-18T22:55:38.799Z,9.22
2023-03-18T22:58:07.993Z,9.23
2023-03-18T23:00:41.268Z,9.20
2023-03-18T23:03:14.852Z,9.15
2023-03-18T23:05:42.880Z,9.13
2023-03-18T23:08:11.003Z,9.12
2023-03-18T23:10:39.631Z,9.09
2023-03-18T23:13:28.284Z,9.08
2023-03-18T23:15:58.264Z,9.04
2023-03-18T23:18:26.372Z,9.07
2023-03-18T23:20:54.694Z,9.07
2023-03-18T23:23:22.881Z,9.10
2023-03-18T23:25:52.490Z,9.11
2023-03-18T23:28:20.872Z,9.10
2023-03-18T23:30:51.741Z,9.06
2023-03-18T23:33:20.227Z,9.06
2023-03-18T23:35:49.230Z,8.99
2023-03-18T23:38:17.295Z,9.01
2023-03-18T23:40:45.419Z,9.03
2023-03-18T23:43:13.456Z,9.09
2023-03-18T23:45:41.583Z,9.15
2023-03-18T23:48:09.774Z,9.20
2023-03-18T23:50:37.840Z,9.23
2023-03-18T23:53:05.915Z,9.23
2023-03-18T23:55:45.461Z,9.22
2023-03-18T23:58:13.579Z,9.19
